Time;durP1;ratioP1;P1;durP2;ratioP2;P2;SDS_P1;SDS_P2;PMS_P1;PMS_P2;Temp;Humidity;BMP_temperature;BMP_pressure;BME280_temperature;BME280_humidity;BME280_pressure;Samples;Min_cycle;Max_cycle;Signal;HPM_P1;HPM_P2
2022/03/29 00:01:56;;;;;;;12.20;9.70;;;7.20;77.40;;;;;;5043337;28;20463;-80
2022/03/29 00:04:22;;;;;;;17.27;9.15;;;7.20;77.70;;;;;;5040907;28;20048;-80
2022/03/29 00:06:49;;;;;;;10.00;8.98;;;7.30;78.10;;;;;;5019634;28;20033;-79
2022/03/29 00:09:16;;;;;;;12.55;8.70;;;7.20;77.40;;;;;;5016179;28;20037;-80
2022/03/29 00:11:43;;;;;;;11.10;8.43;;;7.10;76.90;;;;;;5034360;28;20029;-79
2022/03/29 00:14:10;;;;;;;18.67;9.23;;;7.00;77.00;;;;;;5014904;28;20049;-79
2022/03/29 00:16:37;;;;;;;15.07;9.35;;;6.80;76.70;;;;;;5037226;28;20348;-80
2022/03/29 00:19:03;;;;;;;11.27;9.20;;;6.70;77.20;;;;;;5021882;28;20375;-79
2022/03/29 00:21:30;;;;;;;19.48;9.02;;;6.60;77.50;;;;;;5024611;28;20029;-79
2022/03/29 00:23:56;;;;;;;12.13;9.60;;;6.60;77.90;;;;;;5030346;28;20030;-79
2022/03/29 00:26:22;;;;;;;10.48;8.57;;;6.60;77.80;;;;;;5028688;28;20037;-81
2022/03/29 00:28:48;;;;;;;11.88;9.15;;;6.60;78.40;;;;;;5032250;28;20037;-80
2022/03/29 00:31:19;;;;;;;8.93;8.07;;;6.60;77.70;;;;;;5016228;28;20037;-80
2022/03/29 00:33:47;;;;;;;31.58;20.15;;;6.70;77.90;;;;;;5031954;28;20060;-81
2022/03/29 00:36:13;;;;;;;20.92;9.95;;;6.70;77.40;;;;;;5033280;28;20044;-79
2022/03/29 00:38:40;;;;;;;70.60;46.67;;;6.60;78.20;;;;;;5034044;28;20363;-80
2022/03/29 00:41:06;;;;;;;31.10;21.25;;;6.60;79.30;;;;;;5027112;28;20037;-80
2022/03/29 00:43:33;;;;;;;11.43;9.55;;;6.60;78.40;;;;;;5033248;28;20029;-80
2022/03/29 00:45:59;;;;;;;8.73;7.63;;;6.70;78.30;;;;;;5014579;28;20045;-80
2022/03/29 00:48:25;;;;;;;9.10;8.15;;;6.70;78.50;;;;;;5033471;28;20033;-80
2022/03/29 00:50:53;;;;;;;191.55;148.15;;;6.80;78.80;;;;;;5016292;28;20038;-79
2022/03/29 00:53:22;;;;;;;22.98;16.85;;;6.80;78.10;;;;;;5036783;28;20037;-79
2022/03/29 00:55:49;;;;;;;16.90;10.10;;;6.60;78.40;;;;;;5033778;28;20030;-80
2022/03/29 00:58:16;;;;;;;12.98;8.27;;;6.60;78.20;;;;;;5013279;28;20057;-80
2022/03/29 01:00:43;;;;;;;8.98;8.13;;;6.50;77.80;;;;;;5015939;28;20498;-80
2022/03/29 01:03:09;;;;;;;12.30;8.18;;;6.40;77.90;;;;;;5033361;28;20033;-80
2022/03/29 01:05:35;;;;;;;11.85;8.65;;;6.40;78.40;;;;;;5027411;28;20037;-80
2022/03/29 01:08:02;;;;;;;12.88;9.35;;;6.40;78.60;;;;;;5032170;28;20037;-80
2022/03/29 01:10:28;;;;;;;12.27;8.85;;;6.40;79.20;;;;;;5015242;28;20495;-80
2022/03/29 01:12:56;;;;;;;12.82;9.50;;;6.40;79.00;;;;;;5033092;28;20041;-80
2022/03/29 01:15:26;;;;;;;17.23;9.02;;;6.30;78.50;;;;;;5035807;28;20040;-82
2022/03/29 01:17:54;;;;;;;9.40;8.47;;;6.20;79.20;;;;;;5027901;28;20045;-81
2022/03/29 01:20:24;;;;;;;11.52;9.02;;;6.20;79.20;;;;;;5031566;28;20647;-80
2022/03/29 01:22:52;;;;;;;10.73;6.60;;;6.10;79.70;;;;;;5034433;28;20033;-80
2022/03/29 01:25:22;;;;;;;10.32;9.25;;;6.10;80.70;;;;;;5026848;28;20034;-80
2022/03/29 01:27:51;;;;;;;18.02;14.57;;;6.10;80.90;;;;;;5009706;28;20041;-80
2022/03/29 01:30:18;;;;;;;36.47;28.75;;;6.00;81.20;;;;;;5034332;28;20029;-81
2022/03/29 01:32:47;;;;;;;18.00;16.30;;;5.90;81.30;;;;;;5020917;28;20049;-80
2022/03/29 01:35:16;;;;;;;11.88;10.65;;;5.90;82.20;;;;;;5018710;28;20037;-80
2022/03/29 01:37:42;;;;;;;13.35;10.32;;;5.90;81.40;;;;;;5054405;28;20206;-80
2022/03/29 01:40:12;;;;;;;13.65;11.15;;;5.90;81.60;;;;;;5022143;28;20080;-80
2022/03/29 01:42:42;;;;;;;11.65;10.30;;;5.90;81.70;;;;;;5034719;28;20034;-80
2022/03/29 01:45:09;;;;;;;12.85;10.00;;;5.90;82.30;;;;;;5033591;28;20033;-80
2022/03/29 01:47:35;;;;;;;18.30;16.48;;;5.80;81.70;;;;;;5035153;28;20029;-81
2022/03/29 01:50:02;;;;;;;14.38;9.20;;;5.70;82.30;;;;;;5028472;28;20454;-80
2022/03/29 01:52:28;;;;;;;12.15;10.95;;;5.70;82.90;;;;;;5034113;28;20029;-82
2022/03/29 01:54:55;;;;;;;12.07;10.68;;;5.70;83.70;;;;;;5033638;28;20026;-79
2022/03/29 01:57:27;;;;;;;19.02;10.85;;;5.70;83.60;;;;;;5034598;28;20041;-80
2022/03/29 02:02:43;;;;;;;14.60;9.60;;;5.80;83.30;;;;;;5032902;28;20053;-80
2022/03/29 02:05:09;;;;;;;11.70;10.07;;;5.80;83.50;;;;;;5015388;28;20454;-80
2022/03/29 02:07:36;;;;;;;13.13;10.40;;;5.80;83.40;;;;;;4999903;28;20049;-80
2022/03/29 02:10:05;;;;;;;11.77;10.57;;;5.70;83.50;;;;;;4972170;28;20586;-80
2022/03/29 02:12:33;;;;;;;12.07;10.63;;;5.60;84.40;;;;;;4970252;28;20043;-80
2022/03/29 02:14:59;;;;;;;15.00;11.00;;;5.50;85.00;;;;;;4962431;28;20070;-80
2022/03/29 02:17:26;;;;;;;14.05;10.90;;;5.40;85.30;;;;;;4970670;28;20047;-80
2022/03/29 02:19:52;;;;;;;17.70;11.13;;;5.50;85.70;;;;;;4960799;28;20389;-80
2022/03/29 02:22:18;;;;;;;11.48;10.27;;;5.50;85.60;;;;;;4974630;28;20144;-79
2022/03/29 02:24:44;;;;;;;14.05;9.38;;;5.50;85.50;;;;;;4973210;28;20171;-81
2022/03/29 02:27:10;;;;;;;12.30;10.15;;;5.60;86.00;;;;;;4940915;28;20054;-80
2022/03/29 02:29:37;;;;;;;17.77;9.70;;;5.50;85.50;;;;;;4967320;28;20050;-81
2022/03/29 02:32:05;;;;;;;11.75;9.88;;;5.40;86.00;;;;;;4976746;28;20073;-80
2022/03/29 02:34:31;;;;;;;11.35;10.13;;;5.40;86.50;;;;;;4973461;28;20070;-80
2022/03/29 02:36:58;;;;;;;11.13;10.02;;;5.40;86.60;;;;;;4958821;28;20054;-80
2022/03/29 02:39:24;;;;;;;11.50;10.35;;;5.40;86.40;;;;;;4956556;28;20042;-81
2022/03/29 02:41:50;;;;;;;11.52;10.43;;;5.40;86.60;;;;;;4974706;28;20054;-80
2022/03/29 02:44:17;;;;;;;12.10;10.88;;;5.30;87.10;;;;;;4957838;28;20050;-80
2022/03/29 02:46:44;;;;;;;17.83;10.25;;;5.30;87.50;;;;;;4968330;28;20080;-80
2022/03/29 02:49:10;;;;;;;12.48;9.23;;;5.40;87.70;;;;;;5038366;28;20109;-80
2022/03/29 02:51:37;;;;;;;14.48;10.27;;;5.30;87.80;;;;;;5037654;28;20037;-80
2022/03/29 02:54:03;;;;;;;12.20;10.25;;;5.40;87.90;;;;;;5036519;28;20034;-81
2022/03/29 02:56:29;;;;;;;11.57;9.98;;;5.30;88.50;;;;;;5034355;28;20029;-81
2022/03/29 02:58:56;;;;;;;17.33;11.27;;;5.30;88.40;;;;;;5017507;28;20060;-79
2022/03/29 03:01:22;;;;;;;11.80;10.70;;;5.30;89.30;;;;;;5030955;28;20036;-80
2022/03/29 03:03:48;;;;;;;12.75;9.82;;;5.40;89.70;;;;;;5031538;28;20036;-80
2022/03/29 03:06:14;;;;;;;10.02;9.02;;;5.40;89.20;;;;;;5013449;28;20048;-80
2022/03/29 03:08:40;;;;;;;19.92;10.75;;;5.30;89.00;;;;;;5034092;28;20037;-80
2022/03/29 03:11:07;;;;;;;11.57;10.52;;;5.20;89.50;;;;;;5028911;28;20029;-81
2022/03/29 03:13:33;;;;;;;10.93;9.82;;;5.20;90.00;;;;;;5031265;28;20033;-80
2022/03/29 03:15:59;;;;;;;14.35;10.30;;;5.10;90.20;;;;;;5035258;28;20034;-80
2022/03/29 03:18:25;;;;;;;15.60;10.88;;;5.10;90.70;;;;;;5034467;28;20045;-81
2022/03/29 03:20:51;;;;;;;11.32;10.25;;;5.10;91.30;;;;;;5026366;28;20037;-80
2022/03/29 03:23:17;;;;;;;13.45;9.80;;;5.10;91.50;;;;;;5045648;28;20029;-80
2022/03/29 03:25:44;;;;;;;11.75;10.23;;;5.20;91.10;;;;;;5045039;28;20249;-80
2022/03/29 03:28:10;;;;;;;11.38;10.20;;;5.20;90.70;;;;;;5040698;28;20462;-81
2022/03/29 03:30:36;;;;;;;10.50;9.60;;;5.10;90.50;;;;;;5023251;28;20041;-81
2022/03/29 03:33:02;;;;;;;11.55;10.32;;;5.00;91.20;;;;;;5017455;28;20048;-81
2022/03/29 03:35:29;;;;;;;13.65;11.27;;;4.90;92.00;;;;;;5013109;28;20041;-80
2022/03/29 03:37:55;;;;;;;14.88;11.63;;;4.90;92.60;;;;;;5026545;28;20045;-80
2022/03/29 03:40:21;;;;;;;12.63;11.02;;;4.90;92.40;;;;;;5023251;28;20041;-80
2022/03/29 03:42:48;;;;;;;11.60;10.38;;;4.90;92.50;;;;;;5029464;28;20097;-80
2022/03/29 03:45:14;;;;;;;20.60;12.77;;;4.90;92.70;;;;;;5034019;28;20036;-80
2022/03/29 03:47:40;;;;;;;11.43;10.32;;;4.90;93.00;;;;;;5035827;28;20041;-80
2022/03/29 03:50:08;;;;;;;11.90;9.88;;;4.90;93.10;;;;;;5020615;28;20049;-79
2022/03/29 03:52:34;;;;;;;12.48;11.23;;;4.90;93.40;;;;;;5053116;28;20032;-80
2022/03/29 03:55:00;;;;;;;13.80;10.63;;;4.90;93.70;;;;;;5005089;28;20037;-80
2022/03/29 03:57:27;;;;;;;14.07;12.35;;;4.80;94.00;;;;;;5034003;28;20045;-80
2022/03/29 03:59:55;;;;;;;17.23;12.85;;;4.80;94.60;;;;;;5037722;28;20477;-80
2022/03/29 04:02:23;;;;;;;14.75;12.30;;;4.80;95.00;;;;;;5034401;28;20029;-80
2022/03/29 04:04:49;;;;;;;12.93;10.68;;;4.90;95.10;;;;;;5032821;28;20037;-80
2022/03/29 04:07:15;;;;;;;12.65;11.38;;;4.90;94.90;;;;;;5016883;28;20048;-80
2022/03/29 04:09:42;;;;;;;14.68;12.30;;;4.80;95.40;;;;;;5035305;28;20048;-80
2022/03/29 04:12:08;;;;;;;12.98;11.77;;;4.80;96.00;;;;;;5031052;28;20038;-80
2022/03/29 04:14:36;;;;;;;14.85;12.30;;;4.80;96.30;;;;;;5027286;28;20385;-80
2022/03/29 04:17:04;;;;;;;18.90;12.52;;;4.80;96.50;;;;;;5025595;28;20041;-81
2022/03/29 04:19:30;;;;;;;17.80;12.73;;;4.90;97.30;;;;;;5034731;28;20041;-79
2022/03/29 04:21:56;;;;;;;14.35;12.55;;;4.90;97.20;;;;;;5030591;28;20471;-80
2022/03/29 04:24:23;;;;;;;17.48;12.38;;;5.00;97.20;;;;;;5033905;28;20033;-81
2022/03/29 04:26:49;;;;;;;14.57;12.43;;;5.10;96.90;;;;;;5004710;28;20072;-80
2022/03/29 04:29:15;;;;;;;13.73;11.40;;;5.20;96.40;;;;;;5014957;28;20048;-80
2022/03/29 04:31:41;;;;;;;13.38;11.55;;;5.20;96.60;;;;;;5010742;28;20462;-81
2022/03/29 04:34:08;;;;;;;12.32;10.73;;;5.30;95.50;;;;;;5014662;28;20045;-81
2022/03/29 04:36:34;;;;;;;15.50;11.30;;;5.20;95.10;;;;;;5015115;28;20034;-81
2022/03/29 04:39:00;;;;;;;11.77;10.65;;;5.30;95.10;;;;;;5033567;28;20025;-80
2022/03/29 04:41:27;;;;;;;11.20;10.15;;;5.30;95.30;;;;;;5033016;28;20036;-80
2022/03/29 04:43:53;;;;;;;13.38;11.98;;;5.30;95.50;;;;;;5031155;28;20520;-81
2022/03/29 04:46:19;;;;;;;16.85;12.35;;;5.30;95.20;;;;;;5033447;28;20037;-81
2022/03/29 04:48:45;;;;;;;18.98;12.48;;;5.30;95.20;;;;;;5015019;28;20048;-82
2022/03/29 04:51:11;;;;;;;15.52;13.23;;;5.30;95.70;;;;;;4997272;28;20037;-79
2022/03/29 04:53:38;;;;;;;31.88;13.10;;;5.20;95.90;;;;;;5024801;28;20044;-81
2022/03/29 04:56:05;;;;;;;14.63;12.07;;;5.20;96.10;;;;;;5009546;28;20033;-80
2022/03/29 04:58:32;;;;;;;17.83;12.80;;;5.30;96.00;;;;;;5014385;28;20065;-80
2022/03/29 05:00:58;;;;;;;13.52;11.55;;;5.20;96.30;;;;;;5013350;28;20032;-80
2022/03/29 05:03:25;;;;;;;25.27;13.48;;;5.20;96.10;;;;;;4996655;28;20064;-82
2022/03/29 05:05:51;;;;;;;15.88;11.98;;;5.20;96.30;;;;;;5015535;28;20033;-80
2022/03/29 05:08:18;;;;;;;14.13;12.70;;;5.00;97.10;;;;;;5013836;28;20036;-80
2022/03/29 05:10:44;;;;;;;13.07;11.57;;;4.90;97.80;;;;;;5012259;28;20398;-78
2022/03/29 05:13:11;;;;;;;12.73;11.57;;;4.90;98.60;;;;;;5013375;28;20037;-79
2022/03/29 05:15:37;;;;;;;14.25;12.73;;;4.90;98.70;;;;;;5012513;28;20034;-78
2022/03/29 05:18:03;;;;;;;15.05;13.10;;;4.90;98.70;;;;;;5033115;28;20052;-78
2022/03/29 05:20:29;;;;;;;15.65;12.35;;;4.80;98.90;;;;;;5014019;28;20474;-78
2022/03/29 05:22:56;;;;;;;19.50;13.57;;;4.80;99.10;;;;;;5035612;28;20033;-80
2022/03/29 05:25:24;;;;;;;20.63;13.90;;;4.80;99.60;;;;;;5025098;28;20117;-78
2022/03/29 05:27:52;;;;;;;22.42;14.95;;;4.80;99.90;;;;;;5009795;28;20049;-78
2022/03/29 05:30:20;;;;;;;19.73;14.82;;;4.80;99.90;;;;;;5029602;28;20041;-79
2022/03/29 05:32:50;;;;;;;18.15;15.38;;;4.90;99.90;;;;;;5013675;28;20041;-78
2022/03/29 05:35:17;;;;;;;20.33;16.08;;;4.90;99.90;;;;;;5031806;28;20053;-80
2022/03/29 05:37:43;;;;;;;20.60;14.25;;;4.90;99.90;;;;;;5007205;28;20490;-78
2022/03/29 05:40:11;;;;;;;16.90;14.95;;;4.90;99.90;;;;;;5028033;28;20041;-78
2022/03/29 05:42:41;;;;;;;15.18;13.40;;;4.90;99.90;;;;;;4997070;28;20382;-81
2022/03/29 05:45:09;;;;;;;15.80;13.00;;;5.00;99.90;;;;;;5014864;28;20041;-78
2022/03/29 05:50:21;;;;;;;14.00;12.48;;;5.10;99.90;;;;;;5024353;28;20045;-79
2022/03/29 05:52:47;;;;;;;15.63;13.98;;;5.10;99.90;;;;;;5017240;28;20072;-78
2022/03/29 05:55:15;;;;;;;14.98;13.57;;;5.20;99.90;;;;;;5018991;28;20497;-79
2022/03/29 05:57:41;;;;;;;13.95;12.45;;;5.30;99.90;;;;;;5018845;28;20038;-81
2022/03/29 06:00:10;;;;;;;25.02;12.65;;;5.50;99.80;;;;;;5035766;28;20037;-81
2022/03/29 06:02:43;;;;;;;16.40;13.82;;;5.50;98.90;;;;;;5035159;28;20050;-81
2022/03/29 06:05:10;;;;;;;15.73;14.15;;;5.70;98.20;;;;;;5038327;28;20502;-81
2022/03/29 06:07:36;;;;;;;18.00;14.77;;;5.70;97.10;;;;;;5032494;28;20368;-82
2022/03/29 06:10:04;;;;;;;14.43;12.57;;;5.70;97.10;;;;;;5019540;28;20046;-82
2022/03/29 06:12:30;;;;;;;20.77;14.50;;;5.80;96.50;;;;;;5011717;28;20455;-82
2022/03/29 06:14:56;;;;;;;13.90;12.38;;;5.80;96.50;;;;;;5030919;28;20452;-82
2022/03/29 06:17:23;;;;;;;20.05;13.38;;;5.80;96.90;;;;;;5033429;28;20029;-82
2022/03/29 06:19:49;;;;;;;20.08;15.15;;;5.90;96.90;;;;;;5032828;28;20048;-82
2022/03/29 06:22:15;;;;;;;15.07;13.55;;;6.00;96.80;;;;;;5030883;28;20034;-81
2022/03/29 06:24:42;;;;;;;14.80;13.30;;;6.20;96.90;;;;;;5034136;28;20029;-82
2022/03/29 06:27:08;;;;;;;17.30;14.32;;;6.40;95.60;;;;;;5011876;28;20049;-81
2022/03/29 06:29:37;;;;;;;16.58;14.18;;;6.30;95.10;;;;;;5035662;28;20041;-82
2022/03/29 06:32:03;;;;;;;17.50;13.35;;;6.60;95.20;;;;;;5041598;28;20040;-82
2022/03/29 06:34:30;;;;;;;15.73;12.85;;;6.70;93.50;;;;;;5043644;28;20049;-82
2022/03/29 06:36:57;;;;;;;18.95;12.63;;;6.80;93.10;;;;;;5053557;28;20029;-80
2022/03/29 06:39:23;;;;;;;17.42;14.80;;;7.00;92.90;;;;;;5035715;28;20041;-79
2022/03/29 06:41:50;;;;;;;15.57;13.52;;;7.10;92.60;;;;;;5036789;28;20036;-80
2022/03/29 06:44:17;;;;;;;26.42;12.77;;;7.20;92.30;;;;;;5032373;28;20025;-80
2022/03/29 06:46:43;;;;;;;15.27;12.43;;;7.20;92.10;;;;;;5035372;28;20042;-79
2022/03/29 06:49:10;;;;;;;14.35;11.95;;;7.40;92.10;;;;;;5034433;28;20032;-80
2022/03/29 06:51:37;;;;;;;19.73;13.98;;;7.60;92.10;;;;;;5037910;28;20041;-81
2022/03/29 06:54:04;;;;;;;16.23;13.32;;;7.80;91.30;;;;;;5028472;28;20040;-80
2022/03/29 06:56:31;;;;;;;19.42;13.35;;;7.90;91.00;;;;;;5036862;28;20467;-81
2022/03/29 06:59:00;;;;;;;23.80;15.23;;;8.20;90.90;;;;;;5035675;28;20394;-81
2022/03/29 07:01:27;;;;;;;22.42;16.27;;;8.70;89.80;;;;;;5030715;28;20030;-81
2022/03/29 07:03:57;;;;;;;25.25;16.08;;;8.90;87.20;;;;;;5034925;28;20141;-82
2022/03/29 07:06:25;;;;;;;26.03;16.70;;;9.00;86.20;;;;;;5034502;28;20033;-76
2022/03/29 07:11:36;;;;;;;30.65;18.05;;;9.40;84.40;;;;;;5028287;28;20037;-81
2022/03/29 07:14:06;;;;;;;24.25;17.55;;;9.50;84.00;;;;;;5033513;28;20059;-82
2022/03/29 07:16:33;;;;;;;14.70;13.10;;;9.70;82.90;;;;;;5028718;28;20360;-83
2022/03/29 07:18:59;;;;;;;20.33;17.30;;;10.00;82.00;;;;;;5034270;28;20505;-82
2022/03/29 07:21:25;;;;;;;19.75;17.38;;;10.00;80.90;;;;;;5034659;28;20029;-82
2022/03/29 07:23:52;;;;;;;24.63;17.13;;;10.00;80.60;;;;;;5025612;28;20037;-83
2022/03/29 07:26:18;;;;;;;20.40;17.52;;;10.20;80.00;;;;;;5029636;28;20042;-82
2022/03/29 07:28:44;;;;;;;20.17;17.95;;;10.40;79.40;;;;;;5029355;28;20049;-82
2022/03/29 07:31:10;;;;;;;24.10;18.80;;;10.80;78.00;;;;;;5026010;28;20031;-83
2022/03/29 07:33:36;;;;;;;24.00;17.92;;;11.00;76.40;;;;;;5029140;28;20057;-82
2022/03/29 07:36:03;;;;;;;20.35;17.52;;;10.90;75.70;;;;;;5007014;28;20037;-82
2022/03/29 07:38:30;;;;;;;23.80;18.65;;;11.00;75.90;;;;;;5013365;28;20045;-83
2022/03/29 07:40:57;;;;;;;21.30;17.35;;;11.00;74.90;;;;;;5031122;28;20033;-82
2022/03/29 07:43:23;;;;;;;17.88;16.08;;;11.10;75.00;;;;;;5042312;28;20034;-83
2022/03/29 07:45:49;;;;;;;17.60;15.65;;;11.40;73.70;;;;;;5038274;28;20033;-82
2022/03/29 07:48:15;;;;;;;23.42;17.27;;;11.80;72.20;;;;;;5044964;28;20030;-81
2022/03/29 07:50:42;;;;;;;19.15;15.85;;;12.50;70.70;;;;;;5044339;28;20021;-82
2022/03/29 07:53:09;;;;;;;21.33;16.00;;;12.80;67.90;;;;;;5029096;28;20040;-82
2022/03/29 07:55:40;;;;;;;21.35;16.42;;;12.70;66.20;;;;;;5030093;28;20029;-83
2022/03/29 07:58:06;;;;;;;18.63;16.05;;;13.20;65.40;;;;;;5038701;28;20056;-80
2022/03/29 08:00:33;;;;;;;19.45;16.33;;;13.50;64.10;;;;;;5031684;28;20033;-79
2022/03/29 08:03:05;;;;;;;26.83;16.63;;;13.80;62.50;;;;;;5027928;28;20049;-81
2022/03/29 08:05:33;;;;;;;21.20;15.55;;;14.00;62.00;;;;;;5036036;28;20040;-78
2022/03/29 08:07:59;;;;;;;20.70;14.48;;;14.40;61.30;;;;;;5036635;28;20025;-80
2022/03/29 08:10:28;;;;;;;16.63;14.82;;;14.80;58.90;;;;;;5029014;28;20036;-78
2022/03/29 08:12:59;;;;;;;18.02;14.60;;;15.40;57.80;;;;;;5031945;28;20092;-78
2022/03/29 08:15:26;;;;;;;16.45;14.80;;;15.60;57.40;;;;;;5032022;28;20021;-79
2022/03/29 08:17:53;;;;;;;18.52;13.88;;;16.10;54.90;;;;;;5033129;28;20038;-79
2022/03/29 08:20:20;;;;;;;20.42;14.73;;;16.00;55.00;;;;;;5031987;28;20392;-79
2022/03/29 08:22:46;;;;;;;20.80;15.13;;;16.10;54.20;;;;;;5032757;28;20049;-80
2022/03/29 08:25:14;;;;;;;20.48;16.00;;;16.20;53.60;;;;;;5031533;28;20249;-78
2022/03/29 08:27:43;;;;;;;20.33;15.02;;;15.90;54.20;;;;;;5032457;28;20033;-79
2022/03/29 08:30:10;;;;;;;20.95;14.43;;;15.40;54.60;;;;;;5030874;28;20029;-79
2022/03/29 08:32:37;;;;;;;21.80;15.93;;;15.50;55.20;;;;;;5026404;28;20033;-79
2022/03/29 08:35:05;;;;;;;19.85;14.82;;;14.80;55.70;;;;;;5032141;28;20490;-80
2022/03/29 08:37:31;;;;;;;18.20;14.18;;;14.60;57.60;;;;;;5035242;28;20394;-77
2022/03/29 08:39:57;;;;;;;17.40;14.43;;;14.80;57.10;;;;;;5031884;28;20034;-77
2022/03/29 08:42:25;;;;;;;24.42;15.98;;;14.80;57.30;;;;;;5026276;28;20052;-77
2022/03/29 08:44:51;;;;;;;18.45;14.90;;;14.90;57.00;;;;;;5027849;28;20056;-76
2022/03/29 08:47:17;;;;;;;23.83;15.70;;;15.80;55.90;;;;;;5028891;28;20030;-76
2022/03/29 08:49:45;;;;;;;20.70;15.73;;;16.80;54.40;;;;;;5033006;28;20033;-77
2022/03/29 08:52:11;;;;;;;21.50;15.38;;;16.80;53.50;;;;;;5033091;28;20048;-77
2022/03/29 08:54:38;;;;;;;20.98;15.70;;;16.70;53.90;;;;;;5003195;28;20390;-77
2022/03/29 08:57:05;;;;;;;20.27;16.23;;;15.70;55.40;;;;;;5033150;28;20032;-77
2022/03/29 08:59:31;;;;;;;27.40;17.15;;;15.90;56.40;;;;;;5033493;28;20379;-82
2022/03/29 09:01:58;;;;;;;22.40;16.42;;;16.90;54.30;;;;;;5036833;28;20044;-79
2022/03/29 09:04:25;;;;;;;20.35;15.82;;;16.70;53.70;;;;;;5043517;28;20056;-77
2022/03/29 09:06:58;;;;;;;23.80;17.80;;;16.30;54.50;;;;;;5035055;28;20029;-81
2022/03/29 09:09:25;;;;;;;24.15;15.88;;;16.50;53.90;;;;;;5031940;28;20489;-80
2022/03/29 09:11:53;;;;;;;22.17;17.92;;;16.80;53.60;;;;;;5018659;28;20272;-78
2022/03/29 09:14:24;;;;;;;25.98;18.38;;;16.90;53.00;;;;;;5031709;28;20038;-78
2022/03/29 09:16:51;;;;;;;27.45;18.48;;;16.70;53.80;;;;;;5009906;28;20041;-77
2022/03/29 09:19:23;;;;;;;24.35;17.42;;;15.90;55.20;;;;;;5029311;28;20051;-77
2022/03/29 09:21:51;;;;;;;21.13;17.90;;;16.00;55.10;;;;;;5026305;28;20034;-77
2022/03/29 09:24:18;;;;;;;26.25;18.05;;;16.80;55.70;;;;;;5026292;28;20375;-77
2022/03/29 09:26:47;;;;;;;22.13;17.92;;;17.30;54.50;;;;;;5014393;28;20042;-78
2022/03/29 09:29:19;;;;;;;25.13;20.45;;;17.50;53.10;;;;;;5023535;28;20037;-77
2022/03/29 09:31:59;;;;;;;33.20;20.20;;;17.20;53.60;;;;;;5023394;28;20033;-78
2022/03/29 09:34:28;;;;;;;26.38;19.65;;;16.70;54.40;;;;;;5010855;28;20030;-77
2022/03/29 09:36:54;;;;;;;24.70;20.05;;;16.60;55.10;;;;;;5034518;28;20479;-77
2022/03/29 09:39:32;;;;;;;26.77;20.27;;;17.00;54.30;;;;;;5033236;28;20041;-77
2022/03/29 09:42:00;;;;;;;26.77;19.83;;;17.10;54.10;;;;;;5031247;28;20046;-77
2022/03/29 09:44:47;;;;;;;24.75;21.80;;;16.90;54.70;;;;;;5014125;28;20052;-77
2022/03/29 09:47:15;;;;;;;24.30;20.60;;;16.70;55.50;;;;;;5029215;28;20482;-77
2022/03/29 09:50:11;;;;;;;30.90;21.17;;;17.40;54.90;;;;;;5013844;28;20044;-78
2022/03/29 09:52:39;;;;;;;29.88;22.27;;;17.30;54.40;;;;;;5006090;28;20041;-78
2022/03/29 09:55:21;;;;;;;28.45;21.10;;;17.20;54.00;;;;;;5030367;28;20459;-78
2022/03/29 09:57:55;;;;;;;27.10;20.10;;;17.30;54.30;;;;;;5028516;28;20049;-78
2022/03/29 10:00:24;;;;;;;23.77;21.13;;;17.10;54.50;;;;;;5031819;28;20038;-77
2022/03/29 10:02:51;;;;;;;27.13;20.73;;;17.40;53.40;;;;;;5011497;28;20041;-78
2022/03/29 10:05:19;;;;;;;25.55;20.80;;;17.40;53.20;;;;;;5029198;28;20036;-78
2022/03/29 10:10:55;;;;;;;28.67;22.92;;;17.20;55.00;;;;;;5029769;28;20497;-77
2022/03/29 10:13:23;;;;;;;25.33;21.85;;;17.30;53.90;;;;;;5032848;28;20033;-78
2022/03/29 10:15:51;;;;;;;24.13;21.02;;;17.60;54.40;;;;;;5032211;28;20040;-77
2022/03/29 10:18:18;;;;;;;30.08;21.88;;;17.20;53.40;;;;;;5035931;28;20032;-77
2022/03/29 10:20:44;;;;;;;30.13;21.35;;;17.40;54.40;;;;;;5029723;28;20061;-77
2022/03/29 10:23:18;;;;;;;25.52;21.58;;;17.80;53.90;;;;;;5011924;28;20041;-77
2022/03/29 10:25:44;;;;;;;32.28;21.65;;;18.00;53.10;;;;;;5026982;28;20034;-77
2022/03/29 10:28:11;;;;;;;27.40;20.23;;;18.00;53.90;;;;;;5031914;28;20355;-77
2022/03/29 10:30:41;;;;;;;35.15;21.85;;;18.40;52.50;;;;;;5036218;28;20021;-77
2022/03/29 10:33:20;;;;;;;28.20;21.48;;;18.10;51.80;;;;;;5030269;28;20038;-76
2022/03/29 10:36:02;;;;;;;27.88;21.23;;;17.30;52.80;;;;;;5031610;28;20040;-77
2022/03/29 10:38:46;;;;;;;31.35;21.83;;;17.60;53.90;;;;;;5014203;28;20061;-77
2022/03/29 10:41:32;;;;;;;29.75;21.70;;;17.60;53.10;;;;;;5029966;28;20029;-77
2022/03/29 10:44:04;;;;;;;28.00;21.33;;;17.40;53.50;;;;;;5033070;28;20052;-78
2022/03/29 10:46:42;;;;;;;30.05;22.63;;;17.10;54.10;;;;;;5029216;28;20021;-76
2022/03/29 10:49:28;;;;;;;31.80;22.48;;;17.20;53.90;;;;;;5029099;28;20048;-76
2022/03/29 10:52:20;;;;;;;35.05;22.40;;;17.40;54.20;;;;;;5032553;28;20037;-77
2022/03/29 10:54:47;;;;;;;36.25;23.15;;;17.60;53.50;;;;;;5030444;28;20109;-76
2022/03/29 10:57:24;;;;;;;33.22;21.92;;;17.70;53.40;;;;;;5031615;28;20036;-77
2022/03/29 10:59:58;;;;;;;25.60;22.80;;;17.40;53.40;;;;;;5032580;28;20049;-77
2022/03/29 11:02:25;;;;;;;29.70;22.20;;;17.40;53.80;;;;;;5027460;28;20044;-76
2022/03/29 11:05:12;;;;;;;26.70;20.77;;;17.40;53.10;;;;;;5028039;28;20036;-78
2022/03/29 11:07:52;;;;;;;25.58;20.35;;;17.40;52.90;;;;;;5028286;28;20093;-78
2022/03/29 11:10:21;;;;;;;33.45;23.10;;;17.40;52.40;;;;;;5030697;28;20029;-77
2022/03/29 11:12:52;;;;;;;36.03;20.55;;;17.40;53.50;;;;;;5020696;28;20049;-78
2022/03/29 11:15:24;;;;;;;31.75;22.20;;;17.60;50.40;;;;;;5034937;28;20043;-77
2022/03/29 11:18:01;;;;;;;30.13;22.25;;;17.40;50.30;;;;;;5014013;28;20038;-77
2022/03/29 11:20:38;;;;;;;31.00;21.65;;;17.30;51.60;;;;;;5028728;28;20037;-77
2022/03/29 11:23:05;;;;;;;27.88;21.38;;;17.70;51.70;;;;;;5010972;28;20038;-77
2022/03/29 11:25:42;;;;;;;30.65;21.50;;;18.00;52.10;;;;;;5031371;28;20044;-76
2022/03/29 11:28:11;;;;;;;27.98;21.48;;;18.10;50.10;;;;;;5028732;28;20394;-77
2022/03/29 11:30:37;;;;;;;30.15;21.40;;;17.90;49.80;;;;;;5033244;28;20495;-79
2022/03/29 11:33:06;;;;;;;33.95;21.88;;;18.10;50.60;;;;;;5030463;28;20096;-77
2022/03/29 11:35:38;;;;;;;22.58;19.60;;;18.10;49.60;;;;;;5032864;28;20049;-77
2022/03/29 11:38:12;;;;;;;24.70;20.50;;;17.80;49.10;;;;;;5028654;28;20060;-77
2022/03/29 11:40:40;;;;;;;29.55;20.77;;;17.50;50.00;;;;;;5029668;28;20044;-78
2022/03/29 11:43:11;;;;;;;25.83;20.60;;;17.50;50.60;;;;;;5011573;28;20044;-76
2022/03/29 11:45:44;;;;;;;25.40;19.67;;;17.70;50.60;;;;;;5033716;28;20033;-78
2022/03/29 11:48:12;;;;;;;29.40;22.10;;;17.60;48.50;;;;;;5028061;28;20030;-76
2022/03/29 11:50:46;;;;;;;30.67;20.88;;;17.50;48.30;;;;;;5031933;28;20046;-77
2022/03/29 11:53:30;;;;;;;28.75;20.15;;;17.40;49.00;;;;;;5029817;28;20032;-78
2022/03/29 11:56:05;;;;;;;27.92;20.52;;;17.70;47.80;;;;;;5030725;28;20613;-77
2022/03/29 11:58:42;;;;;;;24.38;19.80;;;17.80;48.40;;;;;;5013515;28;20045;-76
2022/03/29 12:01:10;;;;;;;28.48;20.17;;;17.70;49.00;;;;;;5029089;28;20037;-77
2022/03/29 12:03:41;;;;;;;27.85;21.50;;;17.60;48.20;;;;;;5026539;28;20029;-78
2022/03/29 12:06:09;;;;;;;33.22;19.38;;;17.60;49.20;;;;;;5029319;28;20025;-77
2022/03/29 12:09:00;;;;;;;23.70;18.50;;;17.70;48.60;;;;;;5031306;28;20029;-75
2022/03/29 12:11:31;;;;;;;25.60;19.90;;;17.80;47.30;;;;;;5029052;28;20041;-75
2022/03/29 12:14:13;;;;;;;27.58;19.58;;;17.50;47.70;;;;;;5028462;28;20033;-76
2022/03/29 12:16:39;;;;;;;31.70;20.30;;;17.20;48.40;;;;;;5031021;28;20038;-76
2022/03/29 12:19:14;;;;;;;28.58;20.38;;;17.30;48.60;;;;;;5008730;28;20033;-76
2022/03/29 12:21:44;;;;;;;31.65;21.70;;;17.20;48.90;;;;;;5028307;28;20041;-75
2022/03/29 12:24:12;;;;;;;31.27;21.00;;;17.30;48.50;;;;;;5032096;28;20036;-74
2022/03/29 12:26:46;;;;;;;29.90;20.42;;;17.20;48.90;;;;;;5031929;28;20041;-75
2022/03/29 12:29:23;;;;;;;31.05;20.35;;;17.20;48.50;;;;;;5025450;28;20375;-76
2022/03/29 12:31:50;;;;;;;31.48;19.73;;;17.20;48.60;;;;;;5032308;28;20041;-75
2022/03/29 12:34:23;;;;;;;28.63;19.50;;;17.30;48.90;;;;;;5030554;28;20438;-75
2022/03/29 12:36:52;;;;;;;38.08;20.33;;;17.50;48.80;;;;;;5027894;28;20034;-77
2022/03/29 12:39:19;;;;;;;27.83;21.13;;;17.60;49.80;;;;;;5027326;28;20041;-76
2022/03/29 12:41:48;;;;;;;25.33;20.27;;;17.70;48.30;;;;;;5014025;28;20042;-75
2022/03/29 12:44:37;;;;;;;29.63;21.77;;;17.70;48.20;;;;;;5031194;28;20034;-74
2022/03/29 12:47:05;;;;;;;27.17;20.15;;;17.50;48.30;;;;;;5024943;28;20045;-74
2022/03/29 12:49:33;;;;;;;32.35;21.52;;;17.50;49.20;;;;;;5015456;28;20037;-74
2022/03/29 12:52:07;;;;;;;33.78;21.42;;;17.80;49.40;;;;;;5030513;28;20044;-74